sensor_id;sensor_type;location;lat;lon;timestamp;P1;durP1;ratioP1;P2;durP2;ratioP2
6580;SDS011;3324;50.796;7.228;2023-07-09T00:01:50;13.30;;;12.50;;
6580;SDS011;3324;50.796;7.228;2023-07-09T00:04:16;13.60;;;12.70;;
6580;SDS011;3324;50.796;7.228;2023-07-09T00:06:42;13.07;;;12.37;;
6580;SDS011;3324;50.796;7.228;2023-07-09T00:09:12;13.60;;;12.80;;
6580;SDS011;3324;50.796;7.228;2023-07-09T00:11:40;14.15;;;13.15;;
6580;SDS011;3324;50.796;7.228;2023-07-09T00:14:07;11.85;;;11.25;;
6580;SDS011;3324;50.796;7.228;2023-07-09T00:16:34;13.05;;;12.35;;
6580;SDS011;3324;50.796;7.228;2023-07-09T00:19:00;12.15;;;11.55;;
6580;SDS011;3324;50.796;7.228;2023-07-09T00:21:28;11.90;;;11.30;;
6580;SDS011;3324;50.796;7.228;2023-07-09T00:23:58;12.30;;;11.40;;
6580;SDS011;3324;50.796;7.228;2023-07-09T00:26:29;10.95;;;10.45;;
6580;SDS011;3324;50.796;7.228;2023-07-09T00:28:56;11.30;;;10.80;;
6580;SDS011;3324;50.796;7.228;2023-07-09T00:31:21;11.60;;;11.00;;
6580;SDS011;3324;50.796;7.228;2023-07-09T00:33:48;12.15;;;11.35;;
6580;SDS011;3324;50.796;7.228;2023-07-09T00:36:21;13.07;;;12.20;;
6580;SDS011;3324;50.796;7.228;2023-07-09T00:38:52;11.80;;;11.20;;
6580;SDS011;3324;50.796;7.228;2023-07-09T00:41:18;11.70;;;11.10;;
6580;SDS011;3324;50.796;7.228;2023-07-09T00:43:48;11.10;;;10.60;;
6580;SDS011;3324;50.796;7.228;2023-07-09T00:48:45;11.20;;;10.70;;
6580;SDS011;3324;50.796;7.228;2023-07-09T00:51:19;12.20;;;11.40;;
6580;SDS011;3324;50.796;7.228;2023-07-09T00:53:46;10.90;;;10.40;;
6580;SDS011;3324;50.796;7.228;2023-07-09T00:56:17;10.40;;;10.00;;
6580;SDS011;3324;50.796;7.228;2023-07-09T00:58:50;12.90;;;11.80;;
6580;SDS011;3324;50.796;7.228;2023-07-09T01:01:18;11.80;;;11.20;;
6580;SDS011;3324;50.796;7.228;2023-07-09T01:03:45;11.43;;;10.93;;
6580;SDS011;3324;50.796;7.228;2023-07-09T01:06:12;11.90;;;11.30;;
6580;SDS011;3324;50.796;7.228;2023-07-09T01:08:40;11.90;;;11.30;;
6580;SDS011;3324;50.796;7.228;2023-07-09T01:11:15;11.70;;;11.10;;
6580;SDS011;3324;50.796;7.228;2023-07-09T01:13:51;12.20;;;11.40;;
6580;SDS011;3324;50.796;7.228;2023-07-09T01:16:20;11.30;;;10.80;;
6580;SDS011;3324;50.796;7.228;2023-07-09T01:18:49;11.10;;;10.60;;
6580;SDS011;3324;50.796;7.228;2023-07-09T01:21:15;11.30;;;10.80;;
6580;SDS011;3324;50.796;7.228;2023-07-09T01:23:44;11.40;;;10.90;;
6580;SDS011;3324;50.796;7.228;2023-07-09T01:26:14;12.00;;;11.00;;
6580;SDS011;3324;50.796;7.228;2023-07-09T01:28:45;11.70;;;11.00;;
6580;SDS011;3324;50.796;7.228;2023-07-09T01:31:14;12.55;;;11.45;;
6580;SDS011;3324;50.796;7.228;2023-07-09T01:33:40;11.10;;;10.60;;
6580;SDS011;3324;50.796;7.228;2023-07-09T01:36:10;10.90;;;10.40;;
6580;SDS011;3324;50.796;7.228;2023-07-09T01:38:38;11.50;;;10.80;;
6580;SDS011;3324;50.796;7.228;2023-07-09T01:41:08;10.80;;;10.30;;
6580;SDS011;3324;50.796;7.228;2023-07-09T01:43:39;11.05;;;10.55;;
6580;SDS011;3324;50.796;7.228;2023-07-09T01:46:06;11.00;;;10.50;;
6580;SDS011;3324;50.796;7.228;2023-07-09T01:48:33;11.55;;;10.85;;
6580;SDS011;3324;50.796;7.228;2023-07-09T01:51:05;11.65;;;10.95;;
6580;SDS011;3324;50.796;7.228;2023-07-09T01:53:33;10.70;;;10.30;;
6580;SDS011;3324;50.796;7.228;2023-07-09T01:56:01;10.70;;;10.30;;
6580;SDS011;3324;50.796;7.228;2023-07-09T01:58:27;10.53;;;10.13;;
6580;SDS011;3324;50.796;7.228;2023-07-09T02:00:55;11.50;;;10.80;;
6580;SDS011;3324;50.796;7.228;2023-07-09T02:03:21;11.60;;;10.90;;
6580;SDS011;3324;50.796;7.228;2023-07-09T02:05:49;10.80;;;10.40;;
6580;SDS011;3324;50.796;7.228;2023-07-09T02:08:20;10.35;;;9.95;;
6580;SDS011;3324;50.796;7.228;2023-07-09T02:10:48;10.40;;;10.00;;
6580;SDS011;3324;50.796;7.228;2023-07-09T02:13:14;10.70;;;10.30;;
6580;SDS011;3324;50.796;7.228;2023-07-09T02:15:40;11.70;;;11.00;;
6580;SDS011;3324;50.796;7.228;2023-07-09T02:18:08;10.70;;;10.30;;
6580;SDS011;3324;50.796;7.228;2023-07-09T02:20:38;11.00;;;10.50;;
6580;SDS011;3324;50.796;7.228;2023-07-09T02:23:03;11.25;;;10.65;;
6580;SDS011;3324;50.796;7.228;2023-07-09T02:25:32;10.40;;;10.00;;
6580;SDS011;3324;50.796;7.228;2023-07-09T02:27:57;9.98;;;9.57;;
6580;SDS011;3324;50.796;7.228;2023-07-09T02:30:23;10.40;;;10.00;;
6580;SDS011;3324;50.796;7.228;2023-07-09T02:32:49;10.30;;;9.90;;
6580;SDS011;3324;50.796;7.228;2023-07-09T02:35:14;10.80;;;10.40;;
6580;SDS011;3324;50.796;7.228;2023-07-09T02:37:40;10.10;;;9.70;;
6580;SDS011;3324;50.796;7.228;2023-07-09T02:40:07;11.30;;;10.70;;
6580;SDS011;3324;50.796;7.228;2023-07-09T02:42:34;10.10;;;9.70;;
6580;SDS011;3324;50.796;7.228;2023-07-09T02:45:00;10.00;;;9.70;;
6580;SDS011;3324;50.796;7.228;2023-07-09T02:47:26;10.60;;;10.00;;
6580;SDS011;3324;50.796;7.228;2023-07-09T02:49:52;9.93;;;9.63;;
6580;SDS011;3324;50.796;7.228;2023-07-09T02:52:17;10.70;;;10.30;;
6580;SDS011;3324;50.796;7.228;2023-07-09T02:54:43;11.10;;;10.50;;
6580;SDS011;3324;50.796;7.228;2023-07-09T02:57:08;10.60;;;10.20;;
6580;SDS011;3324;50.796;7.228;2023-07-09T02:59:34;10.10;;;9.70;;
6580;SDS011;3324;50.796;7.228;2023-07-09T03:02:00;10.50;;;10.10;;
6580;SDS011;3324;50.796;7.228;2023-07-09T03:04:26;10.80;;;10.20;;
6580;SDS011;3324;50.796;7.228;2023-07-09T03:06:52;10.60;;;10.20;;
6580;SDS011;3324;50.796;7.228;2023-07-09T03:09:18;10.70;;;10.30;;
6580;SDS011;3324;50.796;7.228;2023-07-09T03:11:44;10.50;;;10.10;;
6580;SDS011;3324;50.796;7.228;2023-07-09T03:14:10;10.60;;;10.20;;
6580;SDS011;3324;50.796;7.228;2023-07-09T03:16:36;11.18;;;10.57;;
6580;SDS011;3324;50.796;7.228;2023-07-09T03:19:02;10.40;;;10.00;;
6580;SDS011;3324;50.796;7.228;2023-07-09T03:21:30;10.55;;;10.05;;
6580;SDS011;3324;50.796;7.228;2023-07-09T03:23:56;10.40;;;9.90;;
6580;SDS011;3324;50.796;7.228;2023-07-09T03:26:22;10.70;;;10.20;;
6580;SDS011;3324;50.796;7.228;2023-07-09T03:28:48;10.00;;;9.70;;
6580;SDS011;3324;50.796;7.228;2023-07-09T03:31:14;10.00;;;9.70;;
6580;SDS011;3324;50.796;7.228;2023-07-09T03:33:39;10.40;;;10.00;;
6580;SDS011;3324;50.796;7.228;2023-07-09T03:36:05;11.20;;;10.60;;
6580;SDS011;3324;50.796;7.228;2023-07-09T03:38:31;10.10;;;9.80;;
6580;SDS011;3324;50.796;7.228;2023-07-09T03:40:57;10.20;;;9.90;;
6580;SDS011;3324;50.796;7.228;2023-07-09T03:43:23;10.03;;;9.73;;
6580;SDS011;3324;50.796;7.228;2023-07-09T03:45:50;9.90;;;9.60;;
6580;SDS011;3324;50.796;7.228;2023-07-09T03:48:16;9.43;;;9.13;;
6580;SDS011;3324;50.796;7.228;2023-07-09T03:50:44;9.10;;;8.90;;
6580;SDS011;3324;50.796;7.228;2023-07-09T03:53:11;9.20;;;9.00;;
6580;SDS011;3324;50.796;7.228;2023-07-09T03:55:37;9.27;;;9.07;;
6580;SDS011;3324;50.796;7.228;2023-07-09T03:58:03;9.50;;;9.20;;
6580;SDS011;3324;50.796;7.228;2023-07-09T04:00:29;9.20;;;9.00;;
6580;SDS011;3324;50.796;7.228;2023-07-09T04:02:55;9.00;;;8.80;;
6580;SDS011;3324;50.796;7.228;2023-07-09T04:05:21;10.00;;;9.50;;
6580;SDS011;3324;50.796;7.228;2023-07-09T04:07:48;9.27;;;9.02;;
6580;SDS011;3324;50.796;7.228;2023-07-09T04:10:14;10.90;;;10.30;;
6580;SDS011;3324;50.796;7.228;2023-07-09T04:12:40;10.25;;;9.75;;
6580;SDS011;3324;50.796;7.228;2023-07-09T04:15:06;9.77;;;9.47;;
6580;SDS011;3324;50.796;7.228;2023-07-09T04:17:32;9.57;;;9.27;;
6580;SDS011;3324;50.796;7.228;2023-07-09T04:19:58;9.60;;;9.30;;
6580;SDS011;3324;50.796;7.228;2023-07-09T04:22:24;9.70;;;9.40;;
6580;SDS011;3324;50.796;7.228;2023-07-09T04:24:50;10.90;;;10.30;;
6580;SDS011;3324;50.796;7.228;2023-07-09T04:27:17;10.93;;;10.32;;
6580;SDS011;3324;50.796;7.228;2023-07-09T04:29:43;10.20;;;9.80;;
6580;SDS011;3324;50.796;7.228;2023-07-09T04:32:12;10.50;;;10.10;;
6580;SDS011;3324;50.796;7.228;2023-07-09T04:34:39;10.07;;;9.77;;
6580;SDS011;3324;50.796;7.228;2023-07-09T04:37:08;10.30;;;9.90;;
6580;SDS011;3324;50.796;7.228;2023-07-09T04:39:35;9.90;;;9.60;;
6580;SDS011;3324;50.796;7.228;2023-07-09T04:42:00;10.50;;;10.10;;
6580;SDS011;3324;50.796;7.228;2023-07-09T04:44:26;10.40;;;10.00;;
6580;SDS011;3324;50.796;7.228;2023-07-09T04:46:52;10.90;;;10.30;;
6580;SDS011;3324;50.796;7.228;2023-07-09T04:49:17;10.10;;;9.80;;
6580;SDS011;3324;50.796;7.228;2023-07-09T04:51:43;10.00;;;9.70;;
6580;SDS011;3324;50.796;7.228;2023-07-09T04:54:09;10.90;;;10.30;;
6580;SDS011;3324;50.796;7.228;2023-07-09T04:56:34;10.00;;;9.70;;
6580;SDS011;3324;50.796;7.228;2023-07-09T04:59:01;9.90;;;9.60;;
6580;SDS011;3324;50.796;7.228;2023-07-09T05:01:27;10.45;;;10.05;;
6580;SDS011;3324;50.796;7.228;2023-07-09T05:03:52;10.20;;;9.90;;
6580;SDS011;3324;50.796;7.228;2023-07-09T05:06:19;10.30;;;9.90;;
6580;SDS011;3324;50.796;7.228;2023-07-09T05:08:46;10.10;;;9.80;;
6580;SDS011;3324;50.796;7.228;2023-07-09T05:11:13;10.30;;;9.90;;
6580;SDS011;3324;50.796;7.228;2023-07-09T05:13:39;11.00;;;10.40;;
6580;SDS011;3324;50.796;7.228;2023-07-09T05:16:05;11.25;;;10.65;;
6580;SDS011;3324;50.796;7.228;2023-07-09T05:18:31;10.70;;;10.30;;
6580;SDS011;3324;50.796;7.228;2023-07-09T05:20:56;10.60;;;10.20;;
6580;SDS011;3324;50.796;7.228;2023-07-09T05:23:23;10.70;;;10.30;;
6580;SDS011;3324;50.796;7.228;2023-07-09T05:25:55;10.45;;;10.05;;
6580;SDS011;3324;50.796;7.228;2023-07-09T05:28:21;11.48;;;10.77;;
6580;SDS011;3324;50.796;7.228;2023-07-09T05:30:47;10.80;;;10.40;;
6580;SDS011;3324;50.796;7.228;2023-07-09T05:33:12;10.70;;;10.30;;
6580;SDS011;3324;50.796;7.228;2023-07-09T05:35:38;11.00;;;10.50;;
6580;SDS011;3324;50.796;7.228;2023-07-09T05:40:29;11.17;;;10.67;;
6580;SDS011;3324;50.796;7.228;2023-07-09T05:42:55;12.00;;;11.20;;
6580;SDS011;3324;50.796;7.228;2023-07-09T05:45:20;11.07;;;10.57;;
6580;SDS011;3324;50.796;7.228;2023-07-09T05:47:46;11.00;;;10.50;;
6580;SDS011;3324;50.796;7.228;2023-07-09T05:50:12;12.15;;;11.35;;
6580;SDS011;3324;50.796;7.228;2023-07-09T05:52:37;12.00;;;11.40;;
6580;SDS011;3324;50.796;7.228;2023-07-09T05:55:03;11.10;;;10.60;;
6580;SDS011;3324;50.796;7.228;2023-07-09T05:57:29;12.30;;;11.50;;
6580;SDS011;3324;50.796;7.228;2023-07-09T05:59:54;11.70;;;11.10;;
6580;SDS011;3324;50.796;7.228;2023-07-09T06:02:20;11.60;;;11.00;;
6580;SDS011;3324;50.796;7.228;2023-07-09T06:04:46;11.33;;;10.83;;
6580;SDS011;3324;50.796;7.228;2023-07-09T06:07:15;12.60;;;11.80;;
6580;SDS011;3324;50.796;7.228;2023-07-09T06:09:41;12.00;;;11.40;;
6580;SDS011;3324;50.796;7.228;2023-07-09T06:12:07;12.47;;;11.77;;
6580;SDS011;3324;50.796;7.228;2023-07-09T06:14:33;12.50;;;11.80;;
6580;SDS011;3324;50.796;7.228;2023-07-09T06:16:59;13.33;;;12.43;;
6580;SDS011;3324;50.796;7.228;2023-07-09T06:19:25;13.40;;;12.50;;
6580;SDS011;3324;50.796;7.228;2023-07-09T06:21:51;12.70;;;12.00;;
6580;SDS011;3324;50.796;7.228;2023-07-09T06:24:16;12.73;;;12.03;;
6580;SDS011;3324;50.796;7.228;2023-07-09T06:26:42;13.50;;;12.60;;
6580;SDS011;3324;50.796;7.228;2023-07-09T06:29:08;12.87;;;12.17;;
6580;SDS011;3324;50.796;7.228;2023-07-09T06:31:34;13.17;;;12.40;;
6580;SDS011;3324;50.796;7.228;2023-07-09T06:34:01;13.20;;;12.40;;
6580;SDS011;3324;50.796;7.228;2023-07-09T06:36:26;13.00;;;12.30;;
6580;SDS011;3324;50.796;7.228;2023-07-09T06:38:52;14.10;;;13.10;;
6580;SDS011;3324;50.796;7.228;2023-07-09T06:41:17;13.20;;;12.40;;
6580;SDS011;3324;50.796;7.228;2023-07-09T06:43:43;13.50;;;12.70;;
6580;SDS011;3324;50.796;7.228;2023-07-09T06:46:10;14.00;;;13.10;;
6580;SDS011;3324;50.796;7.228;2023-07-09T06:48:40;13.30;;;12.50;;
6580;SDS011;3324;50.796;7.228;2023-07-09T06:51:06;15.27;;;14.18;;
6580;SDS011;3324;50.796;7.228;2023-07-09T06:53:32;14.40;;;13.50;;
6580;SDS011;3324;50.796;7.228;2023-07-09T06:55:57;14.40;;;13.50;;
6580;SDS011;3324;50.796;7.228;2023-07-09T06:58:24;15.50;;;14.30;;
6580;SDS011;3324;50.796;7.228;2023-07-09T07:00:52;14.50;;;13.60;;
6580;SDS011;3324;50.796;7.228;2023-07-09T07:03:18;14.50;;;13.60;;
6580;SDS011;3324;50.796;7.228;2023-07-09T07:05:45;14.50;;;13.60;;
6580;SDS011;3324;50.796;7.228;2023-07-09T07:08:13;14.90;;;13.90;;
6580;SDS011;3324;50.796;7.228;2023-07-09T07:10:40;15.80;;;14.60;;
6580;SDS011;3324;50.796;7.228;2023-07-09T07:13:06;15.10;;;14.10;;
6580;SDS011;3324;50.796;7.228;2023-07-09T07:15:31;15.10;;;14.10;;
6580;SDS011;3324;50.796;7.228;2023-07-09T07:17:57;15.90;;;14.80;;
6580;SDS011;3324;50.796;7.228;2023-07-09T07:20:23;15.40;;;14.30;;
6580;SDS011;3324;50.796;7.228;2023-07-09T07:22:49;16.30;;;15.10;;
6580;SDS011;3324;50.796;7.228;2023-07-09T07:25:15;16.40;;;15.20;;
6580;SDS011;3324;50.796;7.228;2023-07-09T07:27:40;16.20;;;15.10;;
6580;SDS011;3324;50.796;7.228;2023-07-09T07:30:06;14.80;;;13.80;;
6580;SDS011;3324;50.796;7.228;2023-07-09T07:32:37;16.90;;;15.70;;
6580;SDS011;3324;50.796;7.228;2023-07-09T07:35:03;15.80;;;14.70;;
6580;SDS011;3324;50.796;7.228;2023-07-09T07:37:29;15.70;;;14.60;;
6580;SDS011;3324;50.796;7.228;2023-07-09T07:39:54;17.00;;;15.60;;
6580;SDS011;3324;50.796;7.228;2023-07-09T07:42:20;17.00;;;15.70;;
6580;SDS011;3324;50.796;7.228;2023-07-09T07:44:46;16.80;;;15.50;;
6580;SDS011;3324;50.796;7.228;2023-07-09T07:47:11;16.70;;;15.40;;
6580;SDS011;3324;50.796;7.228;2023-07-09T07:49:37;17.10;;;15.80;;
6580;SDS011;3324;50.796;7.228;2023-07-09T07:52:03;18.00;;;16.40;;
6580;SDS011;3324;50.796;7.228;2023-07-09T07:54:29;18.20;;;16.30;;
6580;SDS011;3324;50.796;7.228;2023-07-09T07:56:56;17.33;;;15.83;;
6580;SDS011;3324;50.796;7.228;2023-07-09T07:59:23;18.20;;;16.60;;
6580;SDS011;3324;50.796;7.228;2023-07-09T08:01:49;17.80;;;16.40;;
6580;SDS011;3324;50.796;7.228;2023-07-09T08:04:14;18.30;;;16.80;;
6580;SDS011;3324;50.796;7.228;2023-07-09T08:06:40;19.70;;;17.60;;
6580;SDS011;3324;50.796;7.228;2023-07-09T08:09:06;18.40;;;16.90;;
6580;SDS011;3324;50.796;7.228;2023-07-09T08:11:31;18.30;;;16.80;;
6580;SDS011;3324;50.796;7.228;2023-07-09T08:13:57;19.70;;;17.80;;
6580;SDS011;3324;50.796;7.228;2023-07-09T08:16:23;18.30;;;16.70;;
6580;SDS011;3324;50.796;7.228;2023-07-09T08:18:49;19.20;;;17.50;;
6580;SDS011;3324;50.796;7.228;2023-07-09T08:21:16;18.70;;;17.10;;
6580;SDS011;3324;50.796;7.228;2023-07-09T08:23:42;20.25;;;18.25;;
6580;SDS011;3324;50.796;7.228;2023-07-09T08:26:08;19.60;;;17.80;;
6580;SDS011;3324;50.796;7.228;2023-07-09T08:28:34;18.92;;;17.23;;
6580;SDS011;3324;50.796;7.228;2023-07-09T08:31:00;19.40;;;17.40;;
6580;SDS011;3324;50.796;7.228;2023-07-09T08:33:25;24.10;;;21.80;;
6580;SDS011;3324;50.796;7.228;2023-07-09T08:35:52;20.90;;;18.90;;
6580;SDS011;3324;50.796;7.228;2023-07-09T08:38:19;20.00;;;18.10;;
6580;SDS011;3324;50.796;7.228;2023-07-09T08:40:50;20.60;;;18.60;;
6580;SDS011;3324;50.796;7.228;2023-07-09T08:46:07;21.60;;;19.30;;
6580;SDS011;3324;50.796;7.228;2023-07-09T08:48:42;21.05;;;18.95;;
6580;SDS011;3324;50.796;7.228;2023-07-09T08:51:19;24.15;;;19.95;;
6580;SDS011;3324;50.796;7.228;2023-07-09T08:54:04;20.70;;;18.70;;
6580;SDS011;3324;50.796;7.228;2023-07-09T08:56:53;20.63;;;18.63;;
6580;SDS011;3324;50.796;7.228;2023-07-09T08:59:20;20.90;;;18.80;;
6580;SDS011;3324;50.796;7.228;2023-07-09T09:01:49;24.30;;;20.17;;
6580;SDS011;3324;50.796;7.228;2023-07-09T09:04:19;20.60;;;18.60;;
6580;SDS011;3324;50.796;7.228;2023-07-09T09:09:41;25.20;;;20.60;;
6580;SDS011;3324;50.796;7.228;2023-07-09T09:12:18;26.03;;;20.70;;
6580;SDS011;3324;50.796;7.228;2023-07-09T09:14:51;22.52;;;19.88;;
6580;SDS011;3324;50.796;7.228;2023-07-09T09:17:23;23.10;;;20.30;;
6580;SDS011;3324;50.796;7.228;2023-07-09T09:20:02;26.07;;;21.50;;
6580;SDS011;3324;50.796;7.228;2023-07-09T09:22:40;23.40;;;20.40;;
6580;SDS011;3324;50.796;7.228;2023-07-09T09:25:30;24.25;;;20.70;;
6580;SDS011;3324;50.796;7.228;2023-07-09T09:27:59;29.58;;;21.90;;
6580;SDS011;3324;50.796;7.228;2023-07-09T09:30:26;25.05;;;21.00;;
6580;SDS011;3324;50.796;7.228;2023-07-09T09:32:54;24.80;;;20.83;;
6580;SDS011;3324;50.796;7.228;2023-07-09T09:37:55;30.30;;;22.00;;
6580;SDS011;3324;50.796;7.228;2023-07-09T09:40:22;25.10;;;20.90;;
6580;SDS011;3324;50.796;7.228;2023-07-09T09:42:50;26.60;;;21.50;;
6580;SDS011;3324;50.796;7.228;2023-07-09T09:45:18;26.30;;;21.30;;
6580;SDS011;3324;50.796;7.228;2023-07-09T09:47:46;33.50;;;23.20;;
6580;SDS011;3324;50.796;7.228;2023-07-09T09:50:19;32.65;;;22.70;;
6580;SDS011;3324;50.796;7.228;2023-07-09T09:52:47;28.40;;;21.80;;
6580;SDS011;3324;50.796;7.228;2023-07-09T09:55:23;27.40;;;21.80;;
6580;SDS011;3324;50.796;7.228;2023-07-09T09:57:53;28.52;;;22.23;;
6580;SDS011;3324;50.796;7.228;2023-07-09T10:00:23;27.00;;;20.80;;
6580;SDS011;3324;50.796;7.228;2023-07-09T10:02:56;32.20;;;25.20;;
6580;SDS011;3324;50.796;7.228;2023-07-09T10:05:29;30.63;;;22.90;;
6580;SDS011;3324;50.796;7.228;2023-07-09T10:10:38;30.50;;;22.85;;
6580;SDS011;3324;50.796;7.228;2023-07-09T10:16:10;30.90;;;22.80;;
6580;SDS011;3324;50.796;7.228;2023-07-09T10:18:58;31.80;;;23.10;;
6580;SDS011;3324;50.796;7.228;2023-07-09T10:21:32;35.87;;;24.07;;
6580;SDS011;3324;50.796;7.228;2023-07-09T10:26:36;31.63;;;23.00;;
6580;SDS011;3324;50.796;7.228;2023-07-09T10:29:34;29.83;;;22.60;;
6580;SDS011;3324;50.796;7.228;2023-07-09T10:35:31;35.25;;;23.90;;
6580;SDS011;3324;50.796;7.228;2023-07-09T10:38:18;32.10;;;23.40;;
6580;SDS011;3324;50.796;7.228;2023-07-09T10:40:59;30.75;;;22.40;;
6580;SDS011;3324;50.796;7.228;2023-07-09T10:46:11;31.70;;;23.17;;
6580;SDS011;3324;50.796;7.228;2023-07-09T10:48:43;32.83;;;23.47;;
6580;SDS011;3324;50.796;7.228;2023-07-09T10:53:50;35.50;;;24.40;;
6580;SDS011;3324;50.796;7.228;2023-07-09T10:56:27;34.60;;;23.70;;
6580;SDS011;3324;50.796;7.228;2023-07-09T11:01:55;39.40;;;24.70;;
6580;SDS011;3324;50.796;7.228;2023-07-09T11:04:37;31.85;;;22.70;;
6580;SDS011;3324;50.796;7.228;2023-07-09T11:07:15;33.10;;;23.63;;
6580;SDS011;3324;50.796;7.228;2023-07-09T11:09:46;38.30;;;24.70;;
6580;SDS011;3324;50.796;7.228;2023-07-09T11:12:18;33.42;;;23.20;;
6580;SDS011;3324;50.796;7.228;2023-07-09T11:14:56;37.15;;;22.90;;
6580;SDS011;3324;50.796;7.228;2023-07-09T11:17:26;35.63;;;25.00;;
6580;SDS011;3324;50.796;7.228;2023-07-09T11:19:54;35.90;;;24.30;;
6580;SDS011;3324;50.796;7.228;2023-07-09T11:22:25;42.10;;;25.70;;
6580;SDS011;3324;50.796;7.228;2023-07-09T11:25:06;42.20;;;25.80;;
6580;SDS011;3324;50.796;7.228;2023-07-09T11:27:44;39.40;;;24.70;;
6580;SDS011;3324;50.796;7.228;2023-07-09T11:32:56;35.65;;;24.25;;
6580;SDS011;3324;50.796;7.228;2023-07-09T11:35:24;41.60;;;25.20;;
6580;SDS011;3324;50.796;7.228;2023-07-09T11:37:55;35.22;;;23.42;;
6580;SDS011;3324;50.796;7.228;2023-07-09T11:40:24;37.27;;;25.27;;
6580;SDS011;3324;50.796;7.228;2023-07-09T11:42:54;36.15;;;24.05;;
6580;SDS011;3324;50.796;7.228;2023-07-09T11:45:26;36.80;;;24.58;;
6580;SDS011;3324;50.796;7.228;2023-07-09T11:47:57;34.73;;;23.67;;
6580;SDS011;3324;50.796;7.228;2023-07-09T11:50:46;32.30;;;22.65;;
6580;SDS011;3324;50.796;7.228;2023-07-09T11:56:18;36.22;;;23.88;;
6580;SDS011;3324;50.796;7.228;2023-07-09T11:58:49;30.60;;;22.40;;
6580;SDS011;3324;50.796;7.228;2023-07-09T12:01:17;32.35;;;22.55;;
6580;SDS011;3324;50.796;7.228;2023-07-09T12:03:45;31.80;;;23.20;;
6580;SDS011;3324;50.796;7.228;2023-07-09T12:06:16;32.20;;;22.70;;
6580;SDS011;3324;50.796;7.228;2023-07-09T12:08:45;36.87;;;25.50;;
6580;SDS011;3324;50.796;7.228;2023-07-09T12:13:53;35.87;;;24.40;;
6580;SDS011;3324;50.796;7.228;2023-07-09T12:16:27;33.83;;;23.43;;
6580;SDS011;3324;50.796;7.228;2023-07-09T12:19:14;36.30;;;24.45;;
6580;SDS011;3324;50.796;7.228;2023-07-09T12:21:43;35.35;;;24.10;;
6580;SDS011;3324;50.796;7.228;2023-07-09T12:24:15;36.30;;;24.10;;
6580;SDS011;3324;50.796;7.228;2023-07-09T12:29:24;36.60;;;24.50;;
6580;SDS011;3324;50.796;7.228;2023-07-09T12:31:57;36.80;;;24.37;;
6580;SDS011;3324;50.796;7.228;2023-07-09T12:34:24;36.90;;;24.90;;
6580;SDS011;3324;50.796;7.228;2023-07-09T12:36:50;36.70;;;24.60;;
6580;SDS011;3324;50.796;7.228;2023-07-09T12:39:21;35.00;;;23.80;;
6580;SDS011;3324;50.796;7.228;2023-07-09T12:41:50;36.30;;;24.50;;
6580;SDS011;3324;50.796;7.228;2023-07-09T12:44:21;35.20;;;24.00;;
6580;SDS011;3324;50.796;7.228;2023-07-09T12:46:48;34.80;;;23.90;;
6580;SDS011;3324;50.796;7.228;2023-07-09T12:51:48;37.60;;;24.30;;
6580;SDS011;3324;50.796;7.228;2023-07-09T12:54:16;32.77;;;23.07;;
6580;SDS011;3324;50.796;7.228;2023-07-09T12:56:44;31.20;;;23.00;;
6580;SDS011;3324;50.796;7.228;2023-07-09T13:01:59;29.93;;;22.10;;
6580;SDS011;3324;50.796;7.228;2023-07-09T13:04:29;24.40;;;20.90;;
6580;SDS011;3324;50.796;7.228;2023-07-09T13:06:56;29.50;;;22.60;;
6580;SDS011;3324;50.796;7.228;2023-07-09T13:09:24;31.00;;;22.55;;
6580;SDS011;3324;50.796;7.228;2023-07-09T13:11:51;33.50;;;23.70;;
6580;SDS011;3324;50.796;7.228;2023-07-09T13:14:27;37.90;;;24.60;;
6580;SDS011;3324;50.796;7.228;2023-07-09T13:17:02;40.45;;;25.30;;
6580;SDS011;3324;50.796;7.228;2023-07-09T13:19:29;39.55;;;25.00;;
6580;SDS011;3324;50.796;7.228;2023-07-09T13:21:54;34.80;;;24.50;;
6580;SDS011;3324;50.796;7.228;2023-07-09T13:24:24;34.10;;;24.00;;
6580;SDS011;3324;50.796;7.228;2023-07-09T13:26:51;32.90;;;23.50;;
6580;SDS011;3324;50.796;7.228;2023-07-09T13:29:17;37.55;;;24.60;;
6580;SDS011;3324;50.796;7.228;2023-07-09T13:31:45;30.60;;;22.30;;
6580;SDS011;3324;50.796;7.228;2023-07-09T13:34:45;30.40;;;22.30;;
6580;SDS011;3324;50.796;7.228;2023-07-09T13:37:04;28.40;;;21.80;;
6580;SDS011;3324;50.796;7.228;2023-07-09T13:39:31;29.70;;;22.00;;
6580;SDS011;3324;50.796;7.228;2023-07-09T13:41:56;30.20;;;22.80;;
6580;SDS011;3324;50.796;7.228;2023-07-09T13:44:23;34.00;;;23.20;;
6580;SDS011;3324;50.796;7.228;2023-07-09T13:46:51;29.45;;;22.50;;
6580;SDS011;3324;50.796;7.228;2023-07-09T13:49:18;28.30;;;22.10;;
6580;SDS011;3324;50.796;7.228;2023-07-09T13:51:46;28.20;;;22.00;;
6580;SDS011;3324;50.796;7.228;2023-07-09T13:56:41;27.80;;;21.80;;
6580;SDS011;3324;50.796;7.228;2023-07-09T13:59:14;32.60;;;22.60;;
6580;SDS011;3324;50.796;7.228;2023-07-09T14:01:41;28.65;;;22.30;;
6580;SDS011;3324;50.796;7.228;2023-07-09T14:04:08;27.80;;;21.40;;
6580;SDS011;3324;50.796;7.228;2023-07-09T14:06:36;24.73;;;21.10;;
6580;SDS011;3324;50.796;7.228;2023-07-09T14:09:01;31.10;;;22.60;;
6580;SDS011;3324;50.796;7.228;2023-07-09T14:11:28;26.90;;;21.90;;
6580;SDS011;3324;50.796;7.228;2023-07-09T14:13:54;25.60;;;21.30;;
6580;SDS011;3324;50.796;7.228;2023-07-09T14:16:20;23.10;;;20.60;;
6580;SDS011;3324;50.796;7.228;2023-07-09T14:18:46;27.00;;;21.23;;
6580;SDS011;3324;50.796;7.228;2023-07-09T14:23:42;21.70;;;19.50;;
6580;SDS011;3324;50.796;7.228;2023-07-09T14:26:09;21.30;;;19.20;;
6580;SDS011;3324;50.796;7.228;2023-07-09T14:28:35;21.30;;;19.20;;
6580;SDS011;3324;50.796;7.228;2023-07-09T14:31:04;21.60;;;19.40;;
6580;SDS011;3324;50.796;7.228;2023-07-09T14:33:38;21.30;;;19.20;;
6580;SDS011;3324;50.796;7.228;2023-07-09T14:36:04;22.70;;;19.90;;
6580;SDS011;3324;50.796;7.228;2023-07-09T14:38:29;21.80;;;19.60;;
6580;SDS011;3324;50.796;7.228;2023-07-09T14:40:56;21.80;;;19.60;;
6580;SDS011;3324;50.796;7.228;2023-07-09T14:43:24;22.30;;;19.80;;
6580;SDS011;3324;50.796;7.228;2023-07-09T14:45:50;21.60;;;19.40;;
6580;SDS011;3324;50.796;7.228;2023-07-09T14:48:18;21.50;;;19.30;;
6580;SDS011;3324;50.796;7.228;2023-07-09T14:50:44;20.10;;;18.20;;
6580;SDS011;3324;50.796;7.228;2023-07-09T14:53:15;19.20;;;17.50;;
6580;SDS011;3324;50.796;7.228;2023-07-09T14:55:51;20.25;;;18.10;;
6580;SDS011;3324;50.796;7.228;2023-07-09T14:58:18;18.20;;;16.60;;
6580;SDS011;3324;50.796;7.228;2023-07-09T15:00:45;17.00;;;15.70;;
6580;SDS011;3324;50.796;7.228;2023-07-09T15:03:15;18.70;;;17.00;;
6580;SDS011;3324;50.796;7.228;2023-07-09T15:05:48;19.83;;;17.83;;
6580;SDS011;3324;50.796;7.228;2023-07-09T15:08:14;19.25;;;17.75;;
6580;SDS011;3324;50.796;7.228;2023-07-09T15:10:44;19.80;;;18.20;;
6580;SDS011;3324;50.796;7.228;2023-07-09T15:13:15;17.50;;;16.00;;
6580;SDS011;3324;50.796;7.228;2023-07-09T15:15:54;16.90;;;15.60;;
6580;SDS011;3324;50.796;7.228;2023-07-09T15:18:20;16.50;;;15.30;;
6580;SDS011;3324;50.796;7.228;2023-07-09T15:20:53;17.60;;;15.90;;
6580;SDS011;3324;50.796;7.228;2023-07-09T15:23:21;15.50;;;14.40;;
6580;SDS011;3324;50.796;7.228;2023-07-09T15:25:47;16.70;;;15.50;;
6580;SDS011;3324;50.796;7.228;2023-07-09T15:28:13;16.07;;;14.97;;
6580;SDS011;3324;50.796;7.228;2023-07-09T15:30:39;16.85;;;15.45;;
6580;SDS011;3324;50.796;7.228;2023-07-09T15:33:05;15.60;;;14.50;;
6580;SDS011;3324;50.796;7.228;2023-07-09T15:35:38;16.98;;;15.57;;
6580;SDS011;3324;50.796;7.228;2023-07-09T15:38:11;16.60;;;15.40;;
6580;SDS011;3324;50.796;7.228;2023-07-09T15:40:46;15.67;;;14.57;;
6580;SDS011;3324;50.796;7.228;2023-07-09T15:43:13;16.70;;;15.40;;
6580;SDS011;3324;50.796;7.228;2023-07-09T15:45:42;16.30;;;15.10;;
6580;SDS011;3324;50.796;7.228;2023-07-09T15:48:21;17.30;;;15.80;;
6580;SDS011;3324;50.796;7.228;2023-07-09T15:50:57;16.15;;;14.95;;
6580;SDS011;3324;50.796;7.228;2023-07-09T15:53:25;15.90;;;14.80;;